Time;durP1;ratioP1;P1;durP2;ratioP2;P2;SDS_P1;SDS_P2;PMS_P1;PMS_P2;Temp;Humidity;BMP_temperature;BMP_pressure;BME280_temperature;BME280_humidity;BME280_pressure;Samples;Min_cycle;Max_cycle;Signal;HPM_P1;HPM_P2
2020/12/29 00:03:20;;;;;;;25.27;14.67;;;;;;;;;;12884694;23;20206;-57
2020/12/29 00:08:22;;;;;;;25.20;14.33;;;;;;;;;;12882675;23;20199;-57
2020/12/29 00:13:24;;;;;;;25.30;14.57;;;;;;;;;;12883622;23;21052;-57
2020/12/29 00:18:26;;;;;;;23.80;14.17;;;;;;;;;;12883915;23;20203;-58
2020/12/29 00:23:28;;;;;;;26.43;14.27;;;;;;;;;;12885278;23;20189;-59
2020/12/29 00:28:30;;;;;;;30.10;15.63;;;;;;;;;;12885789;23;20175;-56
2020/12/29 00:33:32;;;;;;;24.30;14.83;;;;;;;;;;12884494;23;20182;-57
2020/12/29 00:38:34;;;;;;;28.47;14.93;;;;;;;;;;12884422;23;20202;-57
2020/12/29 00:43:36;;;;;;;25.10;15.03;;;;;;;;;;12885273;23;20175;-57
2020/12/29 00:48:38;;;;;;;26.33;15.53;;;;;;;;;;12884109;23;20875;-57
2020/12/29 00:53:41;;;;;;;23.60;14.37;;;;;;;;;;12885122;23;20180;-58
2020/12/29 00:58:43;;;;;;;26.40;13.90;;;;;;;;;;12885694;23;20217;-56
2020/12/29 01:03:44;;;;;;;25.90;15.17;;;;;;;;;;12883491;23;20751;-58
2020/12/29 01:08:47;;;;;;;25.73;15.83;;;;;;;;;;12882988;23;20207;-58
2020/12/29 01:14:05;;;;;;;29.17;15.80;;;;;;;;;;12905865;23;20174;-58
2020/12/29 01:19:07;;;;;;;30.53;16.30;;;;;;;;;;12885869;23;20206;-57
2020/12/29 01:24:10;;;;;;;27.60;16.00;;;;;;;;;;12883727;23;20179;-57
2020/12/29 01:29:12;;;;;;;27.67;15.00;;;;;;;;;;12886191;23;20179;-57
2020/12/29 01:34:14;;;;;;;28.00;16.20;;;;;;;;;;12884071;23;20236;-57
2020/12/29 01:39:16;;;;;;;29.83;16.10;;;;;;;;;;12884911;23;20206;-58
2020/12/29 01:44:19;;;;;;;32.33;16.47;;;;;;;;;;12882953;23;20186;-58
2020/12/29 01:49:20;;;;;;;27.23;16.40;;;;;;;;;;12885024;23;20653;-58
2020/12/29 01:54:23;;;;;;;30.43;17.30;;;;;;;;;;12883247;23;20179;-58
2020/12/29 01:59:24;;;;;;;32.03;18.40;;;;;;;;;;12887341;23;20206;-58
2020/12/29 02:04:26;;;;;;;31.87;18.63;;;;;;;;;;12882299;23;20206;-57
2020/12/29 02:09:30;;;;;;;34.13;18.30;;;;;;;;;;12886539;23;20179;-56
2020/12/29 02:14:31;;;;;;;35.80;20.13;;;;;;;;;;12883040;23;20171;-58
2020/12/29 02:19:33;;;;;;;38.90;21.67;;;;;;;;;;12884286;23;20624;-57
2020/12/29 02:24:36;;;;;;;39.60;21.90;;;;;;;;;;12883592;23;20955;-59
2020/12/29 02:29:37;;;;;;;42.77;22.67;;;;;;;;;;12886364;23;20175;-58
2020/12/29 02:34:39;;;;;;;40.67;22.00;;;;;;;;;;12886761;23;20212;-58
2020/12/29 02:39:42;;;;;;;41.37;22.33;;;;;;;;;;12890064;23;20214;-58
2020/12/29 02:44:44;;;;;;;45.00;23.13;;;;;;;;;;12889738;23;20620;-58
2020/12/29 02:49:46;;;;;;;42.13;22.07;;;;;;;;;;12886191;23;20175;-57
2020/12/29 02:54:48;;;;;;;41.97;22.10;;;;;;;;;;12888218;23;20183;-57
2020/12/29 02:59:50;;;;;;;40.53;23.10;;;;;;;;;;12888368;23;20305;-58
2020/12/29 03:04:51;;;;;;;44.90;23.63;;;;;;;;;;12887313;23;20210;-57
2020/12/29 03:09:54;;;;;;;46.83;23.90;;;;;;;;;;12886305;23;20807;-58
2020/12/29 03:14:56;;;;;;;45.37;24.13;;;;;;;;;;12889380;23;20175;-57
2020/12/29 03:19:57;;;;;;;43.40;23.70;;;;;;;;;;12885644;23;20237;-58
2020/12/29 03:25:00;;;;;;;45.63;24.77;;;;;;;;;;12888387;23;20175;-58
2020/12/29 03:30:02;;;;;;;48.37;25.23;;;;;;;;;;12887009;23;20277;-58
2020/12/29 03:35:03;;;;;;;52.83;25.07;;;;;;;;;;12886157;23;20734;-57
2020/12/29 03:40:06;;;;;;;51.87;25.47;;;;;;;;;;12886852;23;20207;-58
2020/12/29 03:45:08;;;;;;;48.57;25.83;;;;;;;;;;12889270;23;20175;-58
2020/12/29 03:50:10;;;;;;;46.97;25.60;;;;;;;;;;12884587;23;20183;-56
2020/12/29 03:55:13;;;;;;;46.00;25.37;;;;;;;;;;12888048;23;20649;-57
2020/12/29 04:00:14;;;;;;;43.33;23.37;;;;;;;;;;12886350;23;20728;-57
2020/12/29 04:05:16;;;;;;;44.53;23.97;;;;;;;;;;12885010;23;20218;-58
2020/12/29 04:10:19;;;;;;;47.20;25.10;;;;;;;;;;12885870;23;20175;-56
2020/12/29 04:15:21;;;;;;;45.83;25.07;;;;;;;;;;12886472;23;21009;-57
2020/12/29 04:20:22;;;;;;;45.63;25.00;;;;;;;;;;12884925;23;20237;-57
2020/12/29 04:25:25;;;;;;;46.80;25.33;;;;;;;;;;12888587;23;20175;-58
2020/12/29 04:30:27;;;;;;;48.03;25.90;;;;;;;;;;12885619;23;20171;-57
2020/12/29 04:35:28;;;;;;;54.57;27.27;;;;;;;;;;12886498;23;20175;-58
2020/12/29 04:40:31;;;;;;;54.87;27.53;;;;;;;;;;12882900;23;20689;-57
2020/12/29 04:45:33;;;;;;;52.03;26.90;;;;;;;;;;12887335;23;20183;-56
2020/12/29 04:50:35;;;;;;;51.90;25.63;;;;;;;;;;12883638;23;20182;-57
2020/12/29 04:55:38;;;;;;;52.47;27.13;;;;;;;;;;12888072;23;20174;-57
2020/12/29 05:00:39;;;;;;;51.93;24.97;;;;;;;;;;12886357;23;20213;-57
2020/12/29 05:05:41;;;;;;;44.90;23.63;;;;;;;;;;12884319;23;20211;-58
2020/12/29 05:10:47;;;;;;;44.03;22.27;;;;;;;;;;12891974;23;20198;-58
2020/12/29 05:15:48;;;;;;;45.83;21.93;;;;;;;;;;12907105;23;20847;-57
2020/12/29 05:20:51;;;;;;;41.70;20.00;;;;;;;;;;12872151;23;20217;-58
2020/12/29 05:25:54;;;;;;;39.00;19.00;;;;;;;;;;12884758;23;20184;-57
2020/12/29 05:30:57;;;;;;;35.63;17.13;;;;;;;;;;12886469;23;20175;-56
2020/12/29 05:36:00;;;;;;;31.33;16.10;;;;;;;;;;12883868;23;20279;-56
2020/12/29 05:41:02;;;;;;;28.53;15.03;;;;;;;;;;12885740;23;20213;-56
2020/12/29 05:46:06;;;;;;;28.77;14.37;;;;;;;;;;12884271;23;20250;-58
2020/12/29 05:51:12;;;;;;;26.53;14.40;;;;;;;;;;12885470;23;20182;-57
2020/12/29 05:56:15;;;;;;;27.33;14.37;;;;;;;;;;12904612;23;20613;-57
2020/12/29 06:01:17;;;;;;;29.77;15.53;;;;;;;;;;12885397;23;20285;-57
2020/12/29 06:06:19;;;;;;;31.37;15.90;;;;;;;;;;12882774;23;20199;-58
2020/12/29 06:11:22;;;;;;;27.27;14.20;;;;;;;;;;12888393;23;21145;-58
2020/12/29 06:16:32;;;;;;;26.43;13.77;;;;;;;;;;12888079;23;20171;-58
2020/12/29 06:21:34;;;;;;;27.50;14.90;;;;;;;;;;12909622;23;20202;-57
2020/12/29 06:26:41;;;;;;;28.67;14.87;;;;;;;;;;12888851;23;20175;-58
2020/12/29 06:31:43;;;;;;;30.83;15.57;;;;;;;;;;12909000;23;20635;-58
2020/12/29 06:36:47;;;;;;;27.17;14.43;;;;;;;;;;12886594;23;20179;-57
2020/12/29 06:41:50;;;;;;;29.20;14.43;;;;;;;;;;12889939;23;20202;-56
2020/12/29 06:46:57;;;;;;;28.47;14.67;;;;;;;;;;12886928;23;20564;-57
2020/12/29 06:52:27;;;;;;;23.13;11.80;;;;;;;;;;12889769;23;20178;-56
2020/12/29 06:57:48;;;;;;;17.67;10.17;;;;;;;;;;12908078;23;20167;-58
2020/12/29 07:02:51;;;;;;;20.10;10.33;;;;;;;;;;12886992;23;20530;-56
2020/12/29 07:07:54;;;;;;;26.63;13.07;;;;;;;;;;12881871;23;20289;-57
2020/12/29 07:13:03;;;;;;;28.77;13.90;;;;;;;;;;12885152;23;20181;-56
2020/12/29 07:18:07;;;;;;;27.73;13.77;;;;;;;;;;12898987;23;20505;-57
2020/12/29 07:23:09;;;;;;;25.70;13.50;;;;;;;;;;12877150;23;20287;-58
2020/12/29 07:28:12;;;;;;;30.67;14.73;;;;;;;;;;12879491;23;20179;-58
2020/12/29 07:33:14;;;;;;;40.60;17.43;;;;;;;;;;12881842;23;20175;-58
2020/12/29 07:38:20;;;;;;;30.77;14.93;;;;;;;;;;12878421;23;20518;-58
2020/12/29 07:43:22;;;;;;;29.77;14.83;;;;;;;;;;12902531;23;20695;-59
2020/12/29 07:48:24;;;;;;;28.77;14.50;;;;;;;;;;12880165;23;20186;-59
2020/12/29 07:53:26;;;;;;;28.73;15.00;;;;;;;;;;12882970;23;20175;-58
2020/12/29 07:58:28;;;;;;;30.37;14.97;;;;;;;;;;12880905;23;20182;-59
2020/12/29 08:03:30;;;;;;;31.53;15.10;;;;;;;;;;12881102;23;20225;-60
2020/12/29 08:08:31;;;;;;;30.37;15.63;;;;;;;;;;12876797;23;20800;-57
2020/12/29 08:13:34;;;;;;;34.93;16.00;;;;;;;;;;12880250;23;20175;-58
2020/12/29 08:18:36;;;;;;;33.83;17.27;;;;;;;;;;12874687;23;20180;-60
2020/12/29 08:23:40;;;;;;;35.73;17.40;;;;;;;;;;12878165;23;20175;-56
2020/12/29 08:28:43;;;;;;;37.27;19.23;;;;;;;;;;12878243;23;20662;-57
2020/12/29 08:33:47;;;;;;;42.43;19.23;;;;;;;;;;12880214;23;20512;-58
2020/12/29 08:39:00;;;;;;;42.47;19.07;;;;;;;;;;12867467;23;20175;-58
2020/12/29 08:44:03;;;;;;;40.47;17.40;;;;;;;;;;12891313;23;20442;-59
2020/12/29 08:49:05;;;;;;;40.27;18.63;;;;;;;;;;12875568;23;20237;-58
2020/12/29 08:54:08;;;;;;;39.50;17.80;;;;;;;;;;12871931;23;20245;-58
2020/12/29 08:59:11;;;;;;;36.73;18.50;;;;;;;;;;12871902;23;20596;-58
2020/12/29 09:04:22;;;;;;;38.67;17.90;;;;;;;;;;12873285;23;20195;-59
2020/12/29 09:09:24;;;;;;;37.00;17.53;;;;;;;;;;12872405;23;20185;-57
2020/12/29 09:14:27;;;;;;;38.67;16.87;;;;;;;;;;12871866;23;20175;-58
2020/12/29 09:19:28;;;;;;;34.37;16.97;;;;;;;;;;12876657;23;20616;-57
2020/12/29 09:24:30;;;;;;;35.00;17.23;;;;;;;;;;12878643;23;20186;-58
2020/12/29 09:29:35;;;;;;;34.07;16.17;;;;;;;;;;12878460;23;20179;-58
2020/12/29 09:34:37;;;;;;;32.07;16.03;;;;;;;;;;12896101;23;20168;-58
2020/12/29 09:39:39;;;;;;;30.17;15.40;;;;;;;;;;12878090;23;20210;-57
2020/12/29 09:44:41;;;;;;;30.93;15.37;;;;;;;;;;12877811;23;20181;-58
2020/12/29 09:49:43;;;;;;;32.13;16.20;;;;;;;;;;12878645;23;20836;-57
2020/12/29 09:54:45;;;;;;;34.27;16.27;;;;;;;;;;12876626;23;20181;-60
2020/12/29 09:59:47;;;;;;;29.63;15.70;;;;;;;;;;12881487;23;20206;-56
2020/12/29 10:04:49;;;;;;;32.97;16.70;;;;;;;;;;12874587;23;20569;-58
2020/12/29 10:09:51;;;;;;;33.50;16.03;;;;;;;;;;12877552;23;20186;-58
2020/12/29 10:14:55;;;;;;;31.47;14.90;;;;;;;;;;12879799;23;20731;-58
2020/12/29 10:19:57;;;;;;;28.63;14.67;;;;;;;;;;12875089;23;20202;-58
2020/12/29 10:24:59;;;;;;;31.20;14.43;;;;;;;;;;12876583;23;20179;-58
2020/12/29 10:30:01;;;;;;;28.73;13.93;;;;;;;;;;12875791;23;20183;-58
2020/12/29 10:35:03;;;;;;;25.77;13.50;;;;;;;;;;12875882;23;20175;-59
2020/12/29 10:40:06;;;;;;;25.43;12.50;;;;;;;;;;12878043;23;20214;-58
2020/12/29 10:45:09;;;;;;;27.33;12.70;;;;;;;;;;12878829;23;20449;-57
2020/12/29 10:50:10;;;;;;;24.37;11.90;;;;;;;;;;12876191;23;20183;-59
2020/12/29 10:55:12;;;;;;;27.83;14.43;;;;;;;;;;12878297;23;20875;-59
2020/12/29 11:00:15;;;;;;;29.47;13.83;;;;;;;;;;12875961;23;20206;-60
2020/12/29 11:05:16;;;;;;;29.87;14.03;;;;;;;;;;12879607;23;20206;-59
2020/12/29 11:10:18;;;;;;;28.77;15.47;;;;;;;;;;12878968;23;20542;-59
2020/12/29 11:15:20;;;;;;;29.93;15.27;;;;;;;;;;12882090;23;20175;-58
2020/12/29 11:20:22;;;;;;;31.70;16.10;;;;;;;;;;12877889;23;20215;-58
2020/12/29 11:25:24;;;;;;;32.33;16.90;;;;;;;;;;12883721;23;20639;-58
2020/12/29 11:30:26;;;;;;;35.50;17.83;;;;;;;;;;12878895;23;20501;-57
2020/12/29 11:35:28;;;;;;;44.47;20.50;;;;;;;;;;12879706;23;21021;-58
2020/12/29 11:40:30;;;;;;;44.17;21.73;;;;;;;;;;12876410;23;20206;-56
2020/12/29 11:45:32;;;;;;;52.27;24.07;;;;;;;;;;12880581;23;20198;-56
2020/12/29 11:50:34;;;;;;;53.27;26.00;;;;;;;;;;12878619;23;20791;-58
2020/12/29 11:55:36;;;;;;;47.87;26.10;;;;;;;;;;12882115;23;20175;-59
2020/12/29 12:00:38;;;;;;;44.47;24.40;;;;;;;;;;12881019;23;20209;-59
2020/12/29 12:05:42;;;;;;;46.20;24.47;;;;;;;;;;12873729;23;20230;-59
2020/12/29 12:10:44;;;;;;;44.73;22.77;;;;;;;;;;12878974;23;20179;-58
2020/12/29 12:15:46;;;;;;;33.80;19.50;;;;;;;;;;12878018;23;20660;-59
2020/12/29 12:20:49;;;;;;;31.87;19.40;;;;;;;;;;12878499;23;20210;-55
2020/12/29 12:25:50;;;;;;;33.77;19.13;;;;;;;;;;12879538;23;20186;-57
2020/12/29 12:30:53;;;;;;;33.23;18.87;;;;;;;;;;12880196;23;20510;-59
2020/12/29 12:35:54;;;;;;;29.03;17.10;;;;;;;;;;12876180;23;20190;-59
2020/12/29 12:40:56;;;;;;;28.43;16.63;;;;;;;;;;12880262;23;20206;-58
2020/12/29 12:45:59;;;;;;;27.50;15.00;;;;;;;;;;12877146;23;20656;-57
2020/12/29 12:51:00;;;;;;;26.00;14.43;;;;;;;;;;12882309;23;20607;-58
2020/12/29 12:56:02;;;;;;;21.33;13.13;;;;;;;;;;12884609;23;20201;-58
2020/12/29 13:01:05;;;;;;;19.63;11.17;;;;;;;;;;12885926;23;20676;-57
2020/12/29 13:06:06;;;;;;;18.80;10.93;;;;;;;;;;12881924;23;20206;-57
2020/12/29 13:11:09;;;;;;;21.33;10.70;;;;;;;;;;12886059;23;20503;-57
2020/12/29 13:16:12;;;;;;;18.37;11.00;;;;;;;;;;12884994;23;20182;-58
2020/12/29 13:21:14;;;;;;;20.43;11.40;;;;;;;;;;12884655;23;20203;-58
2020/12/29 13:26:33;;;;;;;20.63;11.67;;;;;;;;;;12884628;23;20171;-59
2020/12/29 13:31:36;;;;;;;22.17;12.17;;;;;;;;;;12886552;23;20747;-58
2020/12/29 13:36:38;;;;;;;21.33;11.70;;;;;;;;;;12882097;23;20645;-57
2020/12/29 13:41:40;;;;;;;23.43;12.03;;;;;;;;;;12885846;23;20676;-57
2020/12/29 13:46:42;;;;;;;21.70;11.10;;;;;;;;;;12884731;23;20179;-58
2020/12/29 13:51:44;;;;;;;23.53;11.53;;;;;;;;;;12884917;23;20179;-58
2020/12/29 13:56:46;;;;;;;18.90;10.73;;;;;;;;;;12883057;23;20823;-58
2020/12/29 14:01:49;;;;;;;19.73;10.57;;;;;;;;;;12883508;23;20730;-59
2020/12/29 14:06:51;;;;;;;20.30;10.23;;;;;;;;;;12884166;23;20210;-59
2020/12/29 14:11:54;;;;;;;16.83;9.20;;;;;;;;;;12880523;23;20206;-56
2020/12/29 14:16:57;;;;;;;15.00;8.77;;;;;;;;;;12879608;23;20178;-59
2020/12/29 14:21:58;;;;;;;17.87;9.63;;;;;;;;;;12875336;23;20206;-59
2020/12/29 14:27:00;;;;;;;22.13;11.53;;;;;;;;;;12877542;23;21032;-59
2020/12/29 14:32:03;;;;;;;18.47;9.43;;;;;;;;;;12877759;23;20265;-58
2020/12/29 14:37:04;;;;;;;20.63;10.13;;;;;;;;;;12881245;23;20183;-58
2020/12/29 14:42:06;;;;;;;15.73;8.80;;;;;;;;;;12881273;23;20935;-59
2020/12/29 14:47:08;;;;;;;14.10;8.23;;;;;;;;;;12881861;23;20182;-59
2020/12/29 14:52:10;;;;;;;15.67;7.23;;;;;;;;;;12878335;23;20179;-58
2020/12/29 14:57:12;;;;;;;8.73;5.10;;;;;;;;;;12882309;23;20179;-59
2020/12/29 15:02:14;;;;;;;9.87;5.10;;;;;;;;;;12880468;23;20214;-58
2020/12/29 15:07:17;;;;;;;12.27;5.33;;;;;;;;;;12879699;23;20266;-58
2020/12/29 15:12:18;;;;;;;7.63;4.87;;;;;;;;;;12879686;23;20232;-58
2020/12/29 15:17:21;;;;;;;10.90;4.90;;;;;;;;;;12881618;23;20178;-59
2020/12/29 15:22:23;;;;;;;13.60;5.07;;;;;;;;;;12876555;23;20546;-58
2020/12/29 15:27:24;;;;;;;8.13;4.53;;;;;;;;;;12884040;23;20947;-59
2020/12/29 15:32:27;;;;;;;8.60;4.77;;;;;;;;;;12878255;23;20510;-58
2020/12/29 15:37:29;;;;;;;6.93;4.70;;;;;;;;;;12882477;23;20171;-59
2020/12/29 15:42:30;;;;;;;10.37;5.20;;;;;;;;;;12880447;23;20206;-59
2020/12/29 15:47:33;;;;;;;12.23;6.03;;;;;;;;;;12880861;23;20171;-58
2020/12/29 15:52:34;;;;;;;13.50;6.00;;;;;;;;;;12876257;23;20622;-58
2020/12/29 15:57:36;;;;;;;9.73;4.97;;;;;;;;;;12881147;23;20198;-61
2020/12/29 16:02:41;;;;;;;10.37;5.43;;;;;;;;;;12877552;23;20221;-61
2020/12/29 16:07:43;;;;;;;8.30;5.23;;;;;;;;;;12878944;23;20711;-61
2020/12/29 16:12:45;;;;;;;10.70;5.50;;;;;;;;;;12878294;23;20175;-61
2020/12/29 16:17:48;;;;;;;9.90;4.70;;;;;;;;;;12881246;23;20426;-59
2020/12/29 16:22:50;;;;;;;10.07;5.13;;;;;;;;;;12877651;23;20203;-60
2020/12/29 16:27:51;;;;;;;9.37;5.50;;;;;;;;;;12879478;23;20175;-60
2020/12/29 16:32:54;;;;;;;8.37;4.87;;;;;;;;;;12879916;23;20183;-59
2020/12/29 16:37:55;;;;;;;9.00;4.80;;;;;;;;;;12878992;23;20180;-60
2020/12/29 16:42:57;;;;;;;8.77;4.70;;;;;;;;;;12880871;23;20253;-59
2020/12/29 16:48:00;;;;;;;11.20;5.87;;;;;;;;;;12881709;23;20183;-60
2020/12/29 16:53:03;;;;;;;12.10;5.70;;;;;;;;;;12877230;23;20181;-59
2020/12/29 16:58:04;;;;;;;12.23;5.60;;;;;;;;;;12876658;23;20210;-59
2020/12/29 17:03:07;;;;;;;11.60;5.87;;;;;;;;;;12879674;23;20218;-59
2020/12/29 17:08:09;;;;;;;12.20;5.67;;;;;;;;;;12877409;23;20207;-60
2020/12/29 17:13:10;;;;;;;12.23;5.80;;;;;;;;;;12880161;23;20209;-60
2020/12/29 17:18:13;;;;;;;15.23;5.83;;;;;;;;;;12876660;23;20175;-60
2020/12/29 17:23:14;;;;;;;14.33;5.70;;;;;;;;;;12874820;23;20214;-60
2020/12/29 17:28:16;;;;;;;12.37;5.43;;;;;;;;;;12875121;23;20606;-60
2020/12/29 17:33:19;;;;;;;9.40;5.27;;;;;;;;;;12879588;23;20175;-60
2020/12/29 17:38:20;;;;;;;9.83;5.30;;;;;;;;;;12877205;23;20186;-61
2020/12/29 17:43:22;;;;;;;10.97;5.63;;;;;;;;;;12878112;23;20202;-61
2020/12/29 17:48:25;;;;;;;12.17;6.50;;;;;;;;;;12876600;23;20178;-62
2020/12/29 17:53:26;;;;;;;14.07;6.30;;;;;;;;;;12879012;23;20633;-61
2020/12/29 17:58:28;;;;;;;11.40;7.07;;;;;;;;;;12876211;23;20175;-61
2020/12/29 18:03:30;;;;;;;12.37;6.20;;;;;;;;;;12877292;23;20215;-59
2020/12/29 18:08:32;;;;;;;11.13;5.53;;;;;;;;;;12875248;23;20218;-60
2020/12/29 18:13:34;;;;;;;12.53;6.00;;;;;;;;;;12882472;23;20175;-60
2020/12/29 18:18:37;;;;;;;14.43;6.33;;;;;;;;;;12879686;23;20642;-59
2020/12/29 18:23:39;;;;;;;12.97;6.00;;;;;;;;;;12882490;23;20211;-59
2020/12/29 18:28:41;;;;;;;17.23;6.70;;;;;;;;;;12879960;23;20182;-59
2020/12/29 18:33:43;;;;;;;12.20;6.00;;;;;;;;;;12880762;23;20625;-60
2020/12/29 18:38:45;;;;;;;14.17;6.17;;;;;;;;;;12880031;23;20184;-60
2020/12/29 18:43:47;;;;;;;12.90;6.03;;;;;;;;;;12884665;23;20203;-58
2020/12/29 18:48:50;;;;;;;15.60;6.50;;;;;;;;;;12878713;23;20179;-59
2020/12/29 18:53:51;;;;;;;16.93;6.57;;;;;;;;;;12882542;23;20175;-59
2020/12/29 18:58:53;;;;;;;14.30;6.43;;;;;;;;;;12877793;23;20181;-59
2020/12/29 19:03:56;;;;;;;16.47;7.10;;;;;;;;;;12881099;23;20218;-59
2020/12/29 19:08:57;;;;;;;16.77;6.57;;;;;;;;;;12877684;23;20546;-59
2020/12/29 19:13:59;;;;;;;13.10;7.30;;;;;;;;;;12881903;23;20181;-59
2020/12/29 19:19:02;;;;;;;15.67;7.10;;;;;;;;;;12884346;23;20182;-59
2020/12/29 19:24:03;;;;;;;12.93;6.43;;;;;;;;;;12877524;23;20702;-60
2020/12/29 19:29:05;;;;;;;16.20;7.10;;;;;;;;;;12880669;23;20183;-61
2020/12/29 19:34:08;;;;;;;14.50;7.20;;;;;;;;;;12879306;23;20175;-61
2020/12/29 19:39:10;;;;;;;13.90;7.40;;;;;;;;;;12880303;23;20175;-59
2020/12/29 19:44:11;;;;;;;17.40;8.03;;;;;;;;;;12881030;23;20211;-59
2020/12/29 19:49:14;;;;;;;20.67;7.93;;;;;;;;;;12883399;23;20179;-60
2020/12/29 19:54:16;;;;;;;17.77;8.57;;;;;;;;;;12876286;23;20175;-60
2020/12/29 19:59:18;;;;;;;15.10;7.87;;;;;;;;;;12880426;23;20731;-59
2020/12/29 20:04:21;;;;;;;17.03;8.23;;;;;;;;;;12879224;23;20217;-59
2020/12/29 20:09:22;;;;;;;16.00;6.90;;;;;;;;;;12878440;23;20211;-59
2020/12/29 20:14:24;;;;;;;15.17;7.43;;;;;;;;;;12878767;23;20481;-59
2020/12/29 20:19:27;;;;;;;19.13;8.87;;;;;;;;;;12877480;23;20175;-59
2020/12/29 20:24:28;;;;;;;16.40;8.80;;;;;;;;;;12875513;23;20581;-58
2020/12/29 20:29:30;;;;;;;17.60;8.77;;;;;;;;;;12882896;23;20182;-60
2020/12/29 20:34:32;;;;;;;20.80;9.53;;;;;;;;;;12876352;23;20182;-59
2020/12/29 20:39:35;;;;;;;18.97;9.30;;;;;;;;;;12879118;23;20515;-60
2020/12/29 20:44:43;;;;;;;23.97;10.03;;;;;;;;;;12879678;23;20207;-61
2020/12/29 20:49:45;;;;;;;23.33;10.07;;;;;;;;;;12881167;23;20175;-60
2020/12/29 20:54:47;;;;;;;20.53;10.10;;;;;;;;;;12876690;23;20338;-60
2020/12/29 20:59:49;;;;;;;22.67;9.60;;;;;;;;;;12881765;23;20835;-59
2020/12/29 21:04:51;;;;;;;22.33;9.90;;;;;;;;;;12876353;23;20215;-59
2020/12/29 21:09:53;;;;;;;22.80;11.10;;;;;;;;;;12896864;23;20182;-59
2020/12/29 21:14:55;;;;;;;24.40;11.53;;;;;;;;;;12878555;23;20175;-61
2020/12/29 21:19:58;;;;;;;22.93;11.17;;;;;;;;;;12879514;23;20363;-60
2020/12/29 21:25:01;;;;;;;22.77;11.33;;;;;;;;;;12876019;23;20203;-59
2020/12/29 21:30:03;;;;;;;24.90;11.00;;;;;;;;;;12881498;23;20174;-60
2020/12/29 21:35:06;;;;;;;22.87;11.33;;;;;;;;;;12875204;23;21080;-62
2020/12/29 21:40:07;;;;;;;31.33;12.93;;;;;;;;;;12880341;23;20179;-59
2020/12/29 21:45:09;;;;;;;26.30;12.07;;;;;;;;;;12876054;23;20826;-60
2020/12/29 21:50:12;;;;;;;28.03;12.57;;;;;;;;;;12879602;23;20210;-59
2020/12/29 21:55:13;;;;;;;31.63;12.60;;;;;;;;;;12885440;23;20175;-60
2020/12/29 22:00:16;;;;;;;27.63;12.57;;;;;;;;;;12886813;23;20183;-59
2020/12/29 22:05:18;;;;;;;35.23;13.47;;;;;;;;;;12882975;23;20210;-60
2020/12/29 22:10:20;;;;;;;28.60;12.73;;;;;;;;;;12884454;23;20175;-59
2020/12/29 22:15:22;;;;;;;31.13;12.60;;;;;;;;;;12884692;23;20193;-58
2020/12/29 22:20:25;;;;;;;32.13;13.67;;;;;;;;;;12881704;23;20514;-58
2020/12/29 22:25:26;;;;;;;40.03;14.10;;;;;;;;;;12884521;23;20175;-59
2020/12/29 22:30:28;;;;;;;27.97;13.10;;;;;;;;;;12883948;23;20905;-58
2020/12/29 22:35:31;;;;;;;27.20;11.90;;;;;;;;;;12882355;23;20194;-58
2020/12/29 22:40:40;;;;;;;27.93;11.77;;;;;;;;;;12905107;23;20253;-58
2020/12/29 22:45:41;;;;;;;26.90;11.97;;;;;;;;;;12883175;23;20178;-58
2020/12/29 22:50:44;;;;;;;25.13;12.00;;;;;;;;;;12883431;23;20179;-59
2020/12/29 22:55:45;;;;;;;30.50;12.93;;;;;;;;;;12886541;23;20179;-60
2020/12/29 23:00:48;;;;;;;29.47;12.60;;;;;;;;;;12887143;23;20203;-57
2020/12/29 23:05:50;;;;;;;25.27;11.70;;;;;;;;;;12885593;23;20221;-59
2020/12/29 23:10:52;;;;;;;30.10;12.90;;;;;;;;;;12887373;23;20183;-58
2020/12/29 23:15:55;;;;;;;28.47;12.50;;;;;;;;;;12887871;23;20175;-59
2020/12/29 23:20:57;;;;;;;33.00;12.60;;;;;;;;;;12885753;23;20345;-59
2020/12/29 23:25:59;;;;;;;26.50;12.80;;;;;;;;;;12886897;23;20183;-58
2020/12/29 23:31:01;;;;;;;29.17;12.73;;;;;;;;;;12886848;23;20175;-58
2020/12/29 23:36:04;;;;;;;26.37;12.90;;;;;;;;;;12885252;23;20189;-59
2020/12/29 23:41:06;;;;;;;27.30;12.27;;;;;;;;;;12885007;23;20206;-59
2020/12/29 23:46:10;;;;;;;23.60;11.63;;;;;;;;;;12885592;23;20170;-59
2020/12/29 23:51:13;;;;;;;24.40;12.40;;;;;;;;;;12885981;23;20171;-58
2020/12/29 23:56:15;;;;;;;25.57;10.00;;;;;;;;;;12887753;23;20178;-59
